sensor_id;sensor_type;location;lat;lon;timestamp;P1;durP1;ratioP1;P2;durP2;ratioP2
5381;SDS011;2714;49.852;6.564;2023-02-01T00:02:15;21.93;;;13.40;;
5381;SDS011;2714;49.852;6.564;2023-02-01T00:06:15;24.90;;;14.40;;
5381;SDS011;2714;49.852;6.564;2023-02-01T00:10:16;22.80;;;13.43;;
5381;SDS011;2714;49.852;6.564;2023-02-01T00:14:17;25.00;;;12.70;;
5381;SDS011;2714;49.852;6.564;2023-02-01T00:18:17;29.50;;;14.27;;
5381;SDS011;2714;49.852;6.564;2023-02-01T00:22:18;27.30;;;14.07;;
5381;SDS011;2714;49.852;6.564;2023-02-01T00:26:40;22.03;;;12.40;;
5381;SDS011;2714;49.852;6.564;2023-02-01T00:30:40;21.00;;;12.10;;
5381;SDS011;2714;49.852;6.564;2023-02-01T00:34:41;23.60;;;13.27;;
5381;SDS011;2714;49.852;6.564;2023-02-01T00:38:42;20.43;;;12.63;;
5381;SDS011;2714;49.852;6.564;2023-02-01T00:42:42;16.97;;;11.07;;
5381;SDS011;2714;49.852;6.564;2023-02-01T00:46:43;19.27;;;10.30;;
5381;SDS011;2714;49.852;6.564;2023-02-01T00:50:43;17.40;;;11.40;;
5381;SDS011;2714;49.852;6.564;2023-02-01T00:54:44;20.93;;;10.70;;
5381;SDS011;2714;49.852;6.564;2023-02-01T00:58:45;18.20;;;11.50;;
5381;SDS011;2714;49.852;6.564;2023-02-01T01:02:45;19.63;;;11.13;;
5381;SDS011;2714;49.852;6.564;2023-02-01T01:06:46;22.17;;;12.33;;
5381;SDS011;2714;49.852;6.564;2023-02-01T01:10:46;22.00;;;11.10;;
5381;SDS011;2714;49.852;6.564;2023-02-01T01:14:47;15.13;;;9.40;;
5381;SDS011;2714;49.852;6.564;2023-02-01T01:18:48;17.17;;;10.10;;
5381;SDS011;2714;49.852;6.564;2023-02-01T01:22:49;17.47;;;10.20;;
5381;SDS011;2714;49.852;6.564;2023-02-01T01:26:49;23.10;;;9.87;;
5381;SDS011;2714;49.852;6.564;2023-02-01T01:30:50;16.60;;;10.83;;
5381;SDS011;2714;49.852;6.564;2023-02-01T01:34:50;17.80;;;10.87;;
5381;SDS011;2714;49.852;6.564;2023-02-01T01:38:51;15.77;;;9.93;;
5381;SDS011;2714;49.852;6.564;2023-02-01T01:42:52;19.60;;;10.70;;
5381;SDS011;2714;49.852;6.564;2023-02-01T01:46:54;19.57;;;11.83;;
5381;SDS011;2714;49.852;6.564;2023-02-01T01:51:00;17.97;;;11.37;;
5381;SDS011;2714;49.852;6.564;2023-02-01T01:55:08;17.77;;;11.47;;
5381;SDS011;2714;49.852;6.564;2023-02-01T01:59:10;16.70;;;10.20;;
5381;SDS011;2714;49.852;6.564;2023-02-01T02:03:13;24.30;;;11.97;;
5381;SDS011;2714;49.852;6.564;2023-02-01T02:07:26;19.50;;;11.03;;
5381;SDS011;2714;49.852;6.564;2023-02-01T02:11:30;18.30;;;10.63;;
5381;SDS011;2714;49.852;6.564;2023-02-01T02:15:31;21.30;;;11.10;;
5381;SDS011;2714;49.852;6.564;2023-02-01T02:19:37;18.00;;;10.17;;
5381;SDS011;2714;49.852;6.564;2023-02-01T02:24:02;13.23;;;7.70;;
5381;SDS011;2714;49.852;6.564;2023-02-01T02:32:47;12.03;;;7.60;;
5381;SDS011;2714;49.852;6.564;2023-02-01T02:36:55;16.87;;;8.03;;
5381;SDS011;2714;49.852;6.564;2023-02-01T02:41:16;15.57;;;9.70;;
5381;SDS011;2714;49.852;6.564;2023-02-01T02:45:47;14.10;;;9.93;;
5381;SDS011;2714;49.852;6.564;2023-02-01T02:50:11;15.70;;;9.00;;
5381;SDS011;2714;49.852;6.564;2023-02-01T02:54:48;15.40;;;8.90;;
5381;SDS011;2714;49.852;6.564;2023-02-01T02:58:51;18.00;;;9.03;;
5381;SDS011;2714;49.852;6.564;2023-02-01T03:03:12;15.43;;;10.13;;
5381;SDS011;2714;49.852;6.564;2023-02-01T03:11:58;17.73;;;8.60;;
5381;SDS011;2714;49.852;6.564;2023-02-01T03:20:28;17.37;;;9.33;;
5381;SDS011;2714;49.852;6.564;2023-02-01T03:24:32;22.67;;;9.63;;
5381;SDS011;2714;49.852;6.564;2023-02-01T03:28:39;14.80;;;9.70;;
5381;SDS011;2714;49.852;6.564;2023-02-01T03:32:44;20.40;;;9.37;;
5381;SDS011;2714;49.852;6.564;2023-02-01T03:37:00;12.60;;;8.43;;
5381;SDS011;2714;49.852;6.564;2023-02-01T03:41:10;20.97;;;9.63;;
5381;SDS011;2714;49.852;6.564;2023-02-01T03:49:29;16.43;;;8.70;;
5381;SDS011;2714;49.852;6.564;2023-02-01T03:53:41;16.90;;;9.20;;
5381;SDS011;2714;49.852;6.564;2023-02-01T03:57:46;20.30;;;10.23;;
5381;SDS011;2714;49.852;6.564;2023-02-01T04:01:52;19.80;;;10.17;;
5381;SDS011;2714;49.852;6.564;2023-02-01T04:05:53;22.10;;;10.37;;
5381;SDS011;2714;49.852;6.564;2023-02-01T04:09:54;20.00;;;10.50;;
5381;SDS011;2714;49.852;6.564;2023-02-01T04:13:55;18.10;;;8.90;;
5381;SDS011;2714;49.852;6.564;2023-02-01T04:17:55;19.13;;;10.03;;
5381;SDS011;2714;49.852;6.564;2023-02-01T04:21:56;16.60;;;10.30;;
5381;SDS011;2714;49.852;6.564;2023-02-01T04:26:03;20.27;;;8.70;;
5381;SDS011;2714;49.852;6.564;2023-02-01T04:30:04;23.57;;;9.73;;
5381;SDS011;2714;49.852;6.564;2023-02-01T04:34:09;29.10;;;9.87;;
5381;SDS011;2714;49.852;6.564;2023-02-01T04:38:10;16.80;;;8.90;;
5381;SDS011;2714;49.852;6.564;2023-02-01T04:42:10;24.27;;;8.73;;
5381;SDS011;2714;49.852;6.564;2023-02-01T04:46:12;16.50;;;8.50;;
5381;SDS011;2714;49.852;6.564;2023-02-01T04:50:13;13.93;;;7.80;;
5381;SDS011;2714;49.852;6.564;2023-02-01T04:54:13;14.40;;;5.87;;
5381;SDS011;2714;49.852;6.564;2023-02-01T04:58:14;16.60;;;6.63;;
5381;SDS011;2714;49.852;6.564;2023-02-01T05:02:14;21.93;;;9.40;;
5381;SDS011;2714;49.852;6.564;2023-02-01T05:06:15;14.03;;;5.63;;
5381;SDS011;2714;49.852;6.564;2023-02-01T05:10:15;18.83;;;5.90;;
5381;SDS011;2714;49.852;6.564;2023-02-01T05:14:16;10.00;;;5.20;;
5381;SDS011;2714;49.852;6.564;2023-02-01T05:18:17;19.27;;;5.40;;
5381;SDS011;2714;49.852;6.564;2023-02-01T05:22:17;16.00;;;5.10;;
5381;SDS011;2714;49.852;6.564;2023-02-01T05:26:18;14.90;;;5.53;;
5381;SDS011;2714;49.852;6.564;2023-02-01T05:30:18;14.00;;;4.70;;
5381;SDS011;2714;49.852;6.564;2023-02-01T05:34:19;9.87;;;4.53;;
5381;SDS011;2714;49.852;6.564;2023-02-01T05:38:20;13.10;;;4.53;;
5381;SDS011;2714;49.852;6.564;2023-02-01T05:42:20;16.03;;;5.20;;
5381;SDS011;2714;49.852;6.564;2023-02-01T05:46:21;16.70;;;5.33;;
5381;SDS011;2714;49.852;6.564;2023-02-01T05:50:21;15.23;;;4.70;;
5381;SDS011;2714;49.852;6.564;2023-02-01T05:54:22;13.47;;;3.93;;
5381;SDS011;2714;49.852;6.564;2023-02-01T05:58:22;10.60;;;4.40;;
5381;SDS011;2714;49.852;6.564;2023-02-01T06:02:23;17.67;;;4.73;;
5381;SDS011;2714;49.852;6.564;2023-02-01T06:06:24;13.67;;;3.60;;
5381;SDS011;2714;49.852;6.564;2023-02-01T06:10:24;19.50;;;3.80;;
5381;SDS011;2714;49.852;6.564;2023-02-01T06:14:25;11.43;;;4.17;;
5381;SDS011;2714;49.852;6.564;2023-02-01T06:18:26;11.27;;;4.30;;
5381;SDS011;2714;49.852;6.564;2023-02-01T06:22:26;16.27;;;4.50;;
5381;SDS011;2714;49.852;6.564;2023-02-01T06:26:27;13.90;;;4.00;;
5381;SDS011;2714;49.852;6.564;2023-02-01T06:30:28;14.23;;;4.00;;
5381;SDS011;2714;49.852;6.564;2023-02-01T06:34:30;12.40;;;3.73;;
5381;SDS011;2714;49.852;6.564;2023-02-01T06:38:31;13.50;;;3.90;;
5381;SDS011;2714;49.852;6.564;2023-02-01T06:42:34;12.53;;;3.67;;
5381;SDS011;2714;49.852;6.564;2023-02-01T06:46:35;12.53;;;3.27;;
5381;SDS011;2714;49.852;6.564;2023-02-01T06:50:35;19.40;;;4.13;;
5381;SDS011;2714;49.852;6.564;2023-02-01T06:54:36;45.03;;;14.60;;
5381;SDS011;2714;49.852;6.564;2023-02-01T06:58:37;30.47;;;14.53;;
5381;SDS011;2714;49.852;6.564;2023-02-01T07:02:39;23.57;;;8.20;;
5381;SDS011;2714;49.852;6.564;2023-02-01T07:06:39;15.03;;;4.40;;
5381;SDS011;2714;49.852;6.564;2023-02-01T07:10:40;13.83;;;4.20;;
5381;SDS011;2714;49.852;6.564;2023-02-01T07:14:41;19.20;;;4.27;;
5381;SDS011;2714;49.852;6.564;2023-02-01T07:18:41;7.80;;;3.50;;
5381;SDS011;2714;49.852;6.564;2023-02-01T07:22:42;22.57;;;4.40;;
5381;SDS011;2714;49.852;6.564;2023-02-01T07:26:43;18.43;;;5.47;;
5381;SDS011;2714;49.852;6.564;2023-02-01T07:30:43;12.27;;;4.10;;
5381;SDS011;2714;49.852;6.564;2023-02-01T07:34:50;10.60;;;3.73;;
5381;SDS011;2714;49.852;6.564;2023-02-01T07:38:51;27.00;;;10.90;;
5381;SDS011;2714;49.852;6.564;2023-02-01T07:42:51;28.20;;;9.33;;
5381;SDS011;2714;49.852;6.564;2023-02-01T07:46:52;22.33;;;8.50;;
5381;SDS011;2714;49.852;6.564;2023-02-01T07:50:56;18.27;;;5.20;;
5381;SDS011;2714;49.852;6.564;2023-02-01T07:54:58;20.67;;;6.10;;
5381;SDS011;2714;49.852;6.564;2023-02-01T07:58:59;18.30;;;5.30;;
5381;SDS011;2714;49.852;6.564;2023-02-01T08:03:00;15.97;;;3.30;;
5381;SDS011;2714;49.852;6.564;2023-02-01T08:07:01;14.73;;;3.90;;
5381;SDS011;2714;49.852;6.564;2023-02-01T08:11:02;20.70;;;4.23;;
5381;SDS011;2714;49.852;6.564;2023-02-01T08:15:04;14.70;;;3.87;;
5381;SDS011;2714;49.852;6.564;2023-02-01T08:19:05;14.57;;;3.80;;
5381;SDS011;2714;49.852;6.564;2023-02-01T08:23:07;16.93;;;4.50;;
5381;SDS011;2714;49.852;6.564;2023-02-01T08:27:08;19.20;;;4.20;;
5381;SDS011;2714;49.852;6.564;2023-02-01T08:31:10;13.80;;;4.50;;
5381;SDS011;2714;49.852;6.564;2023-02-01T08:35:14;19.37;;;3.93;;
5381;SDS011;2714;49.852;6.564;2023-02-01T08:39:15;16.80;;;4.43;;
5381;SDS011;2714;49.852;6.564;2023-02-01T08:43:15;18.67;;;4.20;;
5381;SDS011;2714;49.852;6.564;2023-02-01T08:47:16;16.33;;;3.97;;
5381;SDS011;2714;49.852;6.564;2023-02-01T08:51:17;27.97;;;7.40;;
5381;SDS011;2714;49.852;6.564;2023-02-01T08:55:20;19.37;;;6.40;;
5381;SDS011;2714;49.852;6.564;2023-02-01T08:59:20;23.03;;;6.57;;
5381;SDS011;2714;49.852;6.564;2023-02-01T09:03:21;17.13;;;6.10;;
5381;SDS011;2714;49.852;6.564;2023-02-01T09:07:21;26.10;;;9.30;;
5381;SDS011;2714;49.852;6.564;2023-02-01T09:11:22;14.30;;;5.33;;
5381;SDS011;2714;49.852;6.564;2023-02-01T09:15:22;23.90;;;6.07;;
5381;SDS011;2714;49.852;6.564;2023-02-01T09:19:23;22.50;;;7.00;;
5381;SDS011;2714;49.852;6.564;2023-02-01T09:23:23;15.07;;;5.37;;
5381;SDS011;2714;49.852;6.564;2023-02-01T09:27:24;23.77;;;5.73;;
5381;SDS011;2714;49.852;6.564;2023-02-01T09:31:25;12.43;;;4.77;;
5381;SDS011;2714;49.852;6.564;2023-02-01T09:35:25;21.43;;;4.70;;
5381;SDS011;2714;49.852;6.564;2023-02-01T09:39:26;9.70;;;3.50;;
5381;SDS011;2714;49.852;6.564;2023-02-01T09:47:45;20.47;;;4.97;;
5381;SDS011;2714;49.852;6.564;2023-02-01T09:51:49;17.00;;;3.70;;
5381;SDS011;2714;49.852;6.564;2023-02-01T09:56:00;13.50;;;4.03;;
5381;SDS011;2714;49.852;6.564;2023-02-01T10:00:09;14.33;;;3.90;;
5381;SDS011;2714;49.852;6.564;2023-02-01T10:04:18;12.83;;;4.03;;
5381;SDS011;2714;49.852;6.564;2023-02-01T10:08:25;10.73;;;3.77;;
5381;SDS011;2714;49.852;6.564;2023-02-01T10:13:16;20.17;;;5.00;;
5381;SDS011;2714;49.852;6.564;2023-02-01T10:17:45;13.27;;;3.40;;
5381;SDS011;2714;49.852;6.564;2023-02-01T10:26:42;19.93;;;4.17;;
5381;SDS011;2714;49.852;6.564;2023-02-01T10:30:46;21.27;;;5.80;;
5381;SDS011;2714;49.852;6.564;2023-02-01T10:34:49;22.27;;;6.57;;
5381;SDS011;2714;49.852;6.564;2023-02-01T10:38:55;25.43;;;7.17;;
5381;SDS011;2714;49.852;6.564;2023-02-01T10:43:00;22.83;;;8.00;;
5381;SDS011;2714;49.852;6.564;2023-02-01T10:47:02;26.90;;;8.13;;
5381;SDS011;2714;49.852;6.564;2023-02-01T10:51:08;16.33;;;4.70;;
5381;SDS011;2714;49.852;6.564;2023-02-01T10:55:36;19.00;;;3.73;;
5381;SDS011;2714;49.852;6.564;2023-02-01T10:59:37;14.67;;;4.00;;
5381;SDS011;2714;49.852;6.564;2023-02-01T11:03:41;11.47;;;4.23;;
5381;SDS011;2714;49.852;6.564;2023-02-01T11:07:48;14.17;;;3.47;;
5381;SDS011;2714;49.852;6.564;2023-02-01T11:11:53;15.83;;;4.40;;
5381;SDS011;2714;49.852;6.564;2023-02-01T11:15:58;12.03;;;3.37;;
5381;SDS011;2714;49.852;6.564;2023-02-01T11:20:03;9.80;;;3.50;;
5381;SDS011;2714;49.852;6.564;2023-02-01T11:24:25;11.57;;;4.17;;
5381;SDS011;2714;49.852;6.564;2023-02-01T11:28:31;10.70;;;3.80;;
5381;SDS011;2714;49.852;6.564;2023-02-01T11:32:33;10.37;;;4.00;;
5381;SDS011;2714;49.852;6.564;2023-02-01T11:36:34;11.20;;;3.43;;
5381;SDS011;2714;49.852;6.564;2023-02-01T11:40:37;10.33;;;3.43;;
5381;SDS011;2714;49.852;6.564;2023-02-01T11:44:39;13.93;;;3.93;;
5381;SDS011;2714;49.852;6.564;2023-02-01T11:48:44;13.57;;;3.87;;
5381;SDS011;2714;49.852;6.564;2023-02-01T11:56:55;10.17;;;3.90;;
5381;SDS011;2714;49.852;6.564;2023-02-01T12:10:03;18.27;;;3.80;;
5381;SDS011;2714;49.852;6.564;2023-02-01T12:27:46;13.67;;;3.43;;
5381;SDS011;2714;49.852;6.564;2023-02-01T12:45:11;12.90;;;3.40;;
5381;SDS011;2714;49.852;6.564;2023-02-01T12:49:44;10.13;;;3.40;;
5381;SDS011;2714;49.852;6.564;2023-02-01T12:53:57;7.90;;;3.20;;
5381;SDS011;2714;49.852;6.564;2023-02-01T13:02:28;8.70;;;2.63;;
5381;SDS011;2714;49.852;6.564;2023-02-01T13:10:52;7.33;;;3.10;;
5381;SDS011;2714;49.852;6.564;2023-02-01T13:15:03;11.13;;;3.37;;
5381;SDS011;2714;49.852;6.564;2023-02-01T13:19:18;8.87;;;2.80;;
5381;SDS011;2714;49.852;6.564;2023-02-01T13:23:39;13.47;;;3.47;;
5381;SDS011;2714;49.852;6.564;2023-02-01T13:27:42;8.00;;;2.90;;
5381;SDS011;2714;49.852;6.564;2023-02-01T13:31:52;16.30;;;3.30;;
5381;SDS011;2714;49.852;6.564;2023-02-01T13:45:29;9.90;;;3.73;;
5381;SDS011;2714;49.852;6.564;2023-02-01T13:49:37;10.67;;;3.03;;
5381;SDS011;2714;49.852;6.564;2023-02-01T13:53:44;13.40;;;3.63;;
5381;SDS011;2714;49.852;6.564;2023-02-01T13:57:47;12.70;;;3.50;;
5381;SDS011;2714;49.852;6.564;2023-02-01T14:01:49;15.27;;;4.00;;
5381;SDS011;2714;49.852;6.564;2023-02-01T14:09:51;26.40;;;7.10;;
5381;SDS011;2714;49.852;6.564;2023-02-01T14:13:53;25.80;;;6.97;;
5381;SDS011;2714;49.852;6.564;2023-02-01T14:17:54;17.33;;;3.77;;
5381;SDS011;2714;49.852;6.564;2023-02-01T14:21:58;11.33;;;3.80;;
5381;SDS011;2714;49.852;6.564;2023-02-01T14:26:24;9.90;;;3.13;;
5381;SDS011;2714;49.852;6.564;2023-02-01T14:30:27;10.63;;;3.13;;
5381;SDS011;2714;49.852;6.564;2023-02-01T14:38:47;12.30;;;3.73;;
5381;SDS011;2714;49.852;6.564;2023-02-01T14:42:51;11.47;;;2.80;;
5381;SDS011;2714;49.852;6.564;2023-02-01T14:51:02;9.77;;;2.80;;
5381;SDS011;2714;49.852;6.564;2023-02-01T14:55:06;6.60;;;2.73;;
5381;SDS011;2714;49.852;6.564;2023-02-01T14:59:15;9.33;;;2.40;;
5381;SDS011;2714;49.852;6.564;2023-02-01T15:07:47;6.40;;;2.90;;
5381;SDS011;2714;49.852;6.564;2023-02-01T15:11:54;9.70;;;2.67;;
5381;SDS011;2714;49.852;6.564;2023-02-01T15:16:12;18.23;;;5.63;;
5381;SDS011;2714;49.852;6.564;2023-02-01T15:20:15;13.73;;;4.00;;
5381;SDS011;2714;49.852;6.564;2023-02-01T15:24:19;17.17;;;5.93;;
5381;SDS011;2714;49.852;6.564;2023-02-01T15:28:23;14.40;;;3.97;;
5381;SDS011;2714;49.852;6.564;2023-02-01T15:32:28;10.97;;;5.00;;
5381;SDS011;2714;49.852;6.564;2023-02-01T15:36:33;9.87;;;3.43;;
5381;SDS011;2714;49.852;6.564;2023-02-01T15:40:35;13.73;;;2.70;;
5381;SDS011;2714;49.852;6.564;2023-02-01T15:44:39;6.30;;;3.10;;
5381;SDS011;2714;49.852;6.564;2023-02-01T15:48:49;5.50;;;2.27;;
5381;SDS011;2714;49.852;6.564;2023-02-01T15:52:52;7.50;;;2.43;;
5381;SDS011;2714;49.852;6.564;2023-02-01T15:56:55;13.30;;;3.37;;
5381;SDS011;2714;49.852;6.564;2023-02-01T16:00:59;7.60;;;3.13;;
5381;SDS011;2714;49.852;6.564;2023-02-01T16:05:05;9.00;;;2.87;;
5381;SDS011;2714;49.852;6.564;2023-02-01T16:09:34;10.00;;;3.20;;
5381;SDS011;2714;49.852;6.564;2023-02-01T16:13:36;11.50;;;3.10;;
5381;SDS011;2714;49.852;6.564;2023-02-01T16:17:37;13.20;;;3.30;;
5381;SDS011;2714;49.852;6.564;2023-02-01T16:21:37;12.03;;;3.03;;
5381;SDS011;2714;49.852;6.564;2023-02-01T16:25:38;13.27;;;2.93;;
5381;SDS011;2714;49.852;6.564;2023-02-01T16:29:39;9.90;;;3.53;;
5381;SDS011;2714;49.852;6.564;2023-02-01T16:33:39;13.33;;;3.03;;
5381;SDS011;2714;49.852;6.564;2023-02-01T16:37:40;13.90;;;3.97;;
5381;SDS011;2714;49.852;6.564;2023-02-01T16:41:40;10.90;;;4.40;;
5381;SDS011;2714;49.852;6.564;2023-02-01T16:45:41;30.17;;;9.70;;
5381;SDS011;2714;49.852;6.564;2023-02-01T16:49:49;20.90;;;8.57;;
5381;SDS011;2714;49.852;6.564;2023-02-01T16:53:50;19.20;;;5.93;;
5381;SDS011;2714;49.852;6.564;2023-02-01T16:57:50;17.17;;;5.50;;
5381;SDS011;2714;49.852;6.564;2023-02-01T17:01:51;14.67;;;4.97;;
5381;SDS011;2714;49.852;6.564;2023-02-01T17:05:52;15.87;;;4.03;;
5381;SDS011;2714;49.852;6.564;2023-02-01T17:09:54;16.80;;;4.10;;
